Philadelphia, Pennsylvania
Traffic Map
Current Weather Conditions
Philadelphia, Pennsylvania
Scattered Clouds
Scattered Clouds
14°
Feels Like: 14°
Wind Chill: 14° Ceiling: Unl
Heat Index: 14° Visibility: 10mi
Dew Point: Wind: 14mph
Humidity: 60% Direction: 330° (NNW)
Pressure: 29.87in Gusts: 0mph
Raw Report DataKPHL 241254Z 33012KT 10SM SCT037 SCT080 14/07 A2987 RMK AO2 SLP113 T01440067
Traffic Incident Summary
Active as of:
Severity:
Category:
InformationThere was an issue retrieving the traffic information for this location. Please try a different location or try again shortly.
Advertisements
Track Severe Weather on mobile